Time;durP1;ratioP1;P1;durP2;ratioP2;P2;SDS_P1;SDS_P2;PMS_P1;PMS_P2;Temp;Humidity;BMP_temperature;BMP_pressure;BME280_temperature;BME280_humidity;BME280_pressure;Samples;Min_cycle;Max_cycle;Signal;HPM_P1;HPM_P2
2023/06/11 00:01:08;;;;;;;;;;;20.10;99.20;;;;;;5132876;28;19911;-45
2023/06/11 00:03:40;;;;;;;;;;;20.20;98.90;;;;;;5133282;28;20274;-46
2023/06/11 00:06:10;;;;;;;;;;;20.10;98.50;;;;;;5132649;28;20333;-44
2023/06/11 00:08:36;;;;;;;;;;;20.10;98.40;;;;;;5133298;28;19955;-43
2023/06/11 00:11:01;;;;;;;;;;;20.20;98.60;;;;;;5133371;28;19908;-43
2023/06/11 00:13:27;;;;;;;;;;;20.20;98.00;;;;;;5132187;28;19912;-46
2023/06/11 00:15:53;;;;;;;;;;;20.20;97.60;;;;;;5133161;28;19965;-46
2023/06/11 00:18:18;;;;;;;;;;;20.30;97.60;;;;;;5132845;28;20377;-43
2023/06/11 00:20:44;;;;;;;;;;;20.30;97.70;;;;;;5132437;28;19919;-45
2023/06/11 00:23:10;;;;;;;;;;;20.30;97.50;;;;;;5133143;28;19919;-44
2023/06/11 00:25:35;;;;;;;;;;;20.30;97.20;;;;;;5133337;27;19907;-45
2023/06/11 00:28:01;;;;;;;;;;;20.40;97.00;;;;;;5136518;27;19911;-44
2023/06/11 00:30:27;;;;;;;;;;;20.40;96.90;;;;;;5136980;27;19911;-46
2023/06/11 00:32:52;;;;;;;;;;;20.40;96.80;;;;;;5137270;27;19915;-46
2023/06/11 00:35:18;;;;;;;;;;;20.40;96.50;;;;;;5135992;27;20278;-44
2023/06/11 00:37:43;;;;;;;;;;;20.40;96.50;;;;;;5137057;27;20465;-45
2023/06/11 00:40:09;;;;;;;;;;;20.40;96.30;;;;;;5135791;27;19955;-45
2023/06/11 00:42:35;;;;;;;;;;;20.40;96.30;;;;;;5136573;27;19912;-45
2023/06/11 00:45:04;;;;;;;;;;;20.40;96.10;;;;;;5136781;27;19911;-43
2023/06/11 00:47:29;;;;;;;;;;;20.40;96.30;;;;;;5136188;27;19930;-44
2023/06/11 00:49:55;;;;;;;;;;;20.40;96.10;;;;;;5136720;27;20350;-46
2023/06/11 00:52:21;;;;;;;;;;;20.40;96.00;;;;;;5136794;27;19918;-44
2023/06/11 00:54:47;;;;;;;;;;;20.40;95.90;;;;;;5136063;27;19907;-45
2023/06/11 00:57:13;;;;;;;;;;;20.40;96.00;;;;;;5136449;27;20365;-45
2023/06/11 00:59:39;;;;;;;;;;;20.40;95.80;;;;;;5116243;27;19916;-45
2023/06/11 01:02:17;;;;;;;;;;;20.40;95.80;;;;;;5119432;27;19957;-46
2023/06/11 01:04:44;;;;;;;;;;;20.30;95.80;;;;;;5115876;28;20346;-45
2023/06/11 01:07:12;;;;;;;;;;;20.30;95.70;;;;;;5115774;28;19962;-44
2023/06/11 01:09:38;;;;;;;;;;;20.30;95.60;;;;;;5134850;27;19915;-45
2023/06/11 01:12:04;;;;;;;;;;;20.30;95.50;;;;;;5136221;27;19908;-44
2023/06/11 01:14:32;;;;;;;;;;;20.30;95.60;;;;;;5136242;27;19919;-45
2023/06/11 01:17:04;;;;;;;;;;;20.30;95.70;;;;;;5135172;27;19911;-44
2023/06/11 01:19:38;;;;;;;;;;;20.20;95.60;;;;;;5136284;27;19921;-47
2023/06/11 01:22:29;;;;;;;;;;;20.20;95.50;;;;;;5136250;27;19907;-47
2023/06/11 01:25:03;;;;;;;;;;;20.20;95.80;;;;;;5128230;27;19907;-48
2023/06/11 01:27:47;;;;;;;;;;;20.10;95.60;;;;;;5123050;27;19911;-43
2023/06/11 01:30:17;;;;;;;;;;;20.20;95.60;;;;;;5135311;27;19911;-43
2023/06/11 01:32:53;;;;;;;;;;;20.10;95.50;;;;;;5135834;27;19907;-43
2023/06/11 01:35:18;;;;;;;;;;;20.10;95.60;;;;;;5135678;27;19946;-45
2023/06/11 01:37:45;;;;;;;;;;;20.10;95.60;;;;;;5133759;27;20386;-45
2023/06/11 01:40:14;;;;;;;;;;;20.10;95.60;;;;;;5135868;27;19950;-49
2023/06/11 01:42:40;;;;;;;;;;;20.10;95.70;;;;;;5135622;27;20023;-44
2023/06/11 01:45:06;;;;;;;;;;;20.00;95.90;;;;;;5135448;27;20006;-44
2023/06/11 01:47:32;;;;;;;;;;;20.00;95.90;;;;;;5135407;27;19999;-46
2023/06/11 01:49:57;;;;;;;;;;;20.00;95.90;;;;;;5135618;27;19953;-44
2023/06/11 01:52:24;;;;;;;;;;;19.90;96.00;;;;;;5134855;27;19915;-45
2023/06/11 01:54:50;;;;;;;;;;;19.90;96.00;;;;;;5135679;27;20311;-45
2023/06/11 01:57:15;;;;;;;;;;;19.90;96.60;;;;;;5135069;27;20363;-44
2023/06/11 01:59:41;;;;;;;;;;;19.80;96.50;;;;;;5134701;27;19907;-45
2023/06/11 02:02:06;;;;;;;;;;;19.70;96.60;;;;;;5135406;27;19914;-44
2023/06/11 02:04:32;;;;;;;;;;;19.70;96.50;;;;;;5134623;27;20350;-43
2023/06/11 02:06:57;;;;;;;;;;;19.70;97.00;;;;;;5135139;27;19911;-45
2023/06/11 02:09:23;;;;;;;;;;;19.70;96.70;;;;;;5135097;27;19919;-43
2023/06/11 02:11:48;;;;;;;;;;;19.60;96.90;;;;;;5134753;27;19908;-46
2023/06/11 02:14:14;;;;;;;;;;;19.60;97.00;;;;;;5135178;27;19930;-43
2023/06/11 02:16:39;;;;;;;;;;;19.50;97.10;;;;;;5134747;27;19915;-44
2023/06/11 02:19:05;;;;;;;;;;;19.50;97.50;;;;;;5134117;27;20362;-43
2023/06/11 02:21:31;;;;;;;;;;;19.40;97.40;;;;;;5134916;27;20392;-44
2023/06/11 02:23:56;;;;;;;;;;;19.40;97.30;;;;;;5135083;27;20376;-43
2023/06/11 02:26:21;;;;;;;;;;;19.40;97.50;;;;;;5133735;27;19946;-44
2023/06/11 02:28:47;;;;;;;;;;;19.40;97.60;;;;;;5134880;27;20372;-45
2023/06/11 02:31:12;;;;;;;;;;;19.30;97.30;;;;;;5134646;27;19908;-47
2023/06/11 02:33:38;;;;;;;;;;;19.30;97.40;;;;;;5134270;27;19914;-44
2023/06/11 02:36:04;;;;;;;;;;;19.30;97.50;;;;;;5134670;27;19965;-45
2023/06/11 02:38:30;;;;;;;;;;;19.30;97.80;;;;;;5134134;27;19924;-45
2023/06/11 02:40:55;;;;;;;;;;;19.30;97.70;;;;;;5115496;27;19907;-43
2023/06/11 02:43:21;;;;;;;;;;;19.20;97.90;;;;;;5134537;27;19960;-43
2023/06/11 02:45:46;;;;;;;;;;;19.20;97.80;;;;;;5134535;27;20370;-44
2023/06/11 02:48:11;;;;;;;;;;;19.20;98.10;;;;;;5133551;27;19911;-43
2023/06/11 02:50:37;;;;;;;;;;;19.10;98.00;;;;;;5134527;27;19911;-44
2023/06/11 02:53:03;;;;;;;;;;;19.10;98.20;;;;;;5134576;27;20277;-44
2023/06/11 02:55:29;;;;;;;;;;;19.00;98.00;;;;;;5133663;27;19923;-44
2023/06/11 02:57:54;;;;;;;;;;;19.00;98.20;;;;;;5134461;27;20010;-43
2023/06/11 03:00:20;;;;;;;;;;;19.00;98.10;;;;;;5134527;27;19934;-43
2023/06/11 03:02:45;;;;;;;;;;;18.90;98.10;;;;;;5133770;27;19908;-43
2023/06/11 03:05:11;;;;;;;;;;;19.00;98.50;;;;;;5133844;27;20372;-45
2023/06/11 03:07:36;;;;;;;;;;;19.00;98.20;;;;;;5134216;27;19907;-48
2023/06/11 03:10:02;;;;;;;;;;;19.00;98.40;;;;;;5133679;27;19911;-44
2023/06/11 03:12:27;;;;;;;;;;;18.90;98.20;;;;;;5134174;27;19954;-44
2023/06/11 03:14:53;;;;;;;;;;;18.90;98.50;;;;;;5133212;27;19907;-45
2023/06/11 03:17:18;;;;;;;;;;;19.00;98.40;;;;;;5133584;27;19966;-44
2023/06/11 03:19:43;;;;;;;;;;;18.90;98.20;;;;;;5134085;27;19912;-44
2023/06/11 03:22:09;;;;;;;;;;;18.90;98.30;;;;;;5133594;27;20266;-43
2023/06/11 03:24:35;;;;;;;;;;;18.90;98.40;;;;;;5134069;27;19950;-44
2023/06/11 03:27:00;;;;;;;;;;;18.90;98.40;;;;;;5133825;27;19975;-43
2023/06/11 03:29:25;;;;;;;;;;;18.90;98.30;;;;;;5132861;27;20421;-46
2023/06/11 03:31:51;;;;;;;;;;;18.90;98.80;;;;;;5133919;27;19954;-44
2023/06/11 03:34:16;;;;;;;;;;;18.90;98.90;;;;;;5133687;27;20255;-46
2023/06/11 03:36:42;;;;;;;;;;;18.90;98.90;;;;;;5132768;27;19964;-44
2023/06/11 03:39:07;;;;;;;;;;;18.90;99.20;;;;;;5133570;27;19916;-43
2023/06/11 03:41:33;;;;;;;;;;;18.80;99.00;;;;;;5133696;27;19908;-43
2023/06/11 03:43:58;;;;;;;;;;;18.90;98.80;;;;;;5133005;27;19911;-49
2023/06/11 03:46:24;;;;;;;;;;;18.80;99.30;;;;;;5133345;27;19915;-43
2023/06/11 03:48:49;;;;;;;;;;;18.80;99.10;;;;;;5133661;27;19922;-44
2023/06/11 03:51:15;;;;;;;;;;;18.80;99.30;;;;;;5132763;27;19911;-44
2023/06/11 03:53:41;;;;;;;;;;;18.80;99.20;;;;;;5133627;27;19912;-46
2023/06/11 03:56:06;;;;;;;;;;;18.80;99.60;;;;;;5133271;27;19912;-43
2023/06/11 03:58:32;;;;;;;;;;;18.80;99.70;;;;;;5132469;27;20018;-45
2023/06/11 04:00:57;;;;;;;;;;;18.80;99.50;;;;;;5132723;27;19911;-45
2023/06/11 04:03:23;;;;;;;;;;;18.80;99.90;;;;;;5133253;28;19907;-46
2023/06/11 04:05:48;;;;;;;;;;;18.80;99.90;;;;;;5132367;28;19912;-49
2023/06/11 04:08:14;;;;;;;;;;;18.80;99.90;;;;;;5133140;28;19912;-44
2023/06/11 04:10:39;;;;;;;;;;;18.80;99.90;;;;;;5133404;28;19915;-45
2023/06/11 04:13:05;;;;;;;;;;;18.80;99.90;;;;;;5132719;28;19907;-42
2023/06/11 04:15:31;;;;;;;;;;;18.80;99.90;;;;;;5133040;28;19915;-43
2023/06/11 04:17:56;;;;;;;;;;;18.80;99.90;;;;;;5133177;28;19916;-44
2023/06/11 04:20:21;;;;;;;;;;;18.80;99.90;;;;;;5132339;28;19921;-44
2023/06/11 04:22:47;;;;;;;;;;;18.80;99.90;;;;;;5132983;28;19912;-45
2023/06/11 04:25:13;;;;;;;;;;;18.80;99.90;;;;;;5132012;28;19963;-42
2023/06/11 04:27:38;;;;;;;;;;;18.80;99.90;;;;;;5133225;28;19907;-43
2023/06/11 04:30:04;;;;;;;;;;;18.90;99.90;;;;;;5132979;28;19981;-43
2023/06/11 04:32:34;;;;;;;;;;;18.90;99.90;;;;;;5130033;28;20165;-47
2023/06/11 04:35:03;;;;;;;;;;;18.90;99.90;;;;;;5128954;28;19912;-44
2023/06/11 04:37:30;;;;;;;;;;;18.90;99.90;;;;;;5124564;28;20368;-46
2023/06/11 04:40:00;;;;;;;;;;;18.90;99.90;;;;;;5122921;28;20266;-44
2023/06/11 04:42:25;;;;;;;;;;;18.90;99.90;;;;;;5132650;28;19908;-44
2023/06/11 04:44:52;;;;;;;;;;;18.90;99.90;;;;;;5129391;28;19912;-44
2023/06/11 04:47:22;;;;;;;;;;;19.00;99.90;;;;;;5111705;28;19908;-44
2023/06/11 04:49:52;;;;;;;;;;;19.00;99.90;;;;;;5112622;28;19907;-45
2023/06/11 04:52:18;;;;;;;;;;;19.00;99.90;;;;;;5116768;28;19991;-44
2023/06/11 04:54:45;;;;;;;;;;;19.00;99.90;;;;;;5132246;28;20045;-46
2023/06/11 04:57:11;;;;;;;;;;;19.00;99.90;;;;;;5132408;28;20209;-44
2023/06/11 04:59:36;;;;;;;;;;;19.10;99.90;;;;;;5132838;28;20097;-43
2023/06/11 05:02:01;;;;;;;;;;;19.10;99.90;;;;;;5132011;28;19908;-44
2023/06/11 05:04:27;;;;;;;;;;;19.10;99.90;;;;;;5132973;28;19922;-45
2023/06/11 05:06:54;;;;;;;;;;;19.10;99.90;;;;;;5132913;28;19961;-43
2023/06/11 05:09:20;;;;;;;;;;;19.10;99.90;;;;;;5131769;28;19908;-44
2023/06/11 05:11:45;;;;;;;;;;;19.20;99.90;;;;;;5132411;27;20331;-44
2023/06/11 05:14:11;;;;;;;;;;;19.20;99.90;;;;;;5135282;27;19911;-43
2023/06/11 05:16:37;;;;;;;;;;;19.30;99.90;;;;;;5135558;27;19998;-46
2023/06/11 05:19:03;;;;;;;;;;;19.30;99.90;;;;;;5136230;27;19961;-45
2023/06/11 05:21:28;;;;;;;;;;;19.30;99.90;;;;;;5135169;27;19912;-43
2023/06/11 05:23:54;;;;;;;;;;;19.40;99.90;;;;;;5136189;27;19969;-44
2023/06/11 05:26:32;;;;;;;;;;;19.40;99.90;;;;;;5135973;27;19911;-45
2023/06/11 05:28:57;;;;;;;;;;;19.40;99.90;;;;;;5135486;27;19911;-45
2023/06/11 05:31:23;;;;;;;;;;;19.50;99.90;;;;;;5135800;27;19914;-44
2023/06/11 05:33:49;;;;;;;;;;;19.50;99.90;;;;;;5136221;27;20286;-45
2023/06/11 05:36:15;;;;;;;;;;;19.50;99.90;;;;;;5134818;27;19923;-45
2023/06/11 05:38:40;;;;;;;;;;;19.60;99.90;;;;;;5125044;27;19930;-43
2023/06/11 05:41:06;;;;;;;;;;;19.60;99.90;;;;;;5117899;27;19919;-45
2023/06/11 05:43:31;;;;;;;;;;;19.70;99.90;;;;;;5123380;27;19933;-45
2023/06/11 05:45:57;;;;;;;;;;;19.70;99.90;;;;;;5115326;28;20006;-44
2023/06/11 05:48:23;;;;;;;;;;;19.70;99.90;;;;;;5115001;28;19908;-49
2023/06/11 05:50:48;;;;;;;;;;;19.80;99.90;;;;;;5121230;27;19911;-43
2023/06/11 05:53:14;;;;;;;;;;;19.80;99.90;;;;;;5135455;27;20255;-44
2023/06/11 05:55:39;;;;;;;;;;;19.90;99.90;;;;;;5135871;27;20393;-43
2023/06/11 05:58:05;;;;;;;;;;;19.90;99.90;;;;;;5134491;27;20010;-45
2023/06/11 06:00:31;;;;;;;;;;;19.90;99.90;;;;;;5135237;27;19919;-46
2023/06/11 06:02:56;;;;;;;;;;;20.00;99.90;;;;;;5128716;27;19916;-44
2023/06/11 06:05:22;;;;;;;;;;;20.00;99.90;;;;;;5125082;27;19919;-44
2023/06/11 06:07:47;;;;;;;;;;;20.10;99.90;;;;;;5116230;27;19918;-45
2023/06/11 06:10:13;;;;;;;;;;;20.10;99.90;;;;;;5115334;27;20370;-43
2023/06/11 06:12:39;;;;;;;;;;;20.20;99.90;;;;;;5134518;27;19916;-45
2023/06/11 06:15:04;;;;;;;;;;;20.20;99.90;;;;;;5134228;27;20269;-44
2023/06/11 06:17:30;;;;;;;;;;;20.30;99.90;;;;;;5134716;27;19966;-43
2023/06/11 06:19:55;;;;;;;;;;;20.30;99.90;;;;;;5134457;27;19908;-45
2023/06/11 06:22:21;;;;;;;;;;;20.40;99.90;;;;;;5134820;27;19911;-45
2023/06/11 06:24:46;;;;;;;;;;;20.50;99.90;;;;;;5133811;27;19954;-47
2023/06/11 06:27:12;;;;;;;;;;;20.50;99.90;;;;;;5134900;27;19908;-44
2023/06/11 06:29:38;;;;;;;;;;;20.60;99.90;;;;;;5133900;27;19914;-45
2023/06/11 06:32:04;;;;;;;;;;;20.60;99.90;;;;;;5131575;27;20041;-45
2023/06/11 06:34:30;;;;;;;;;;;20.70;99.90;;;;;;5128569;27;20389;-43
2023/06/11 06:36:55;;;;;;;;;;;20.70;99.90;;;;;;5133387;27;20251;-44
2023/06/11 06:39:21;;;;;;;;;;;20.80;99.90;;;;;;5133564;27;19967;-44
2023/06/11 06:41:46;;;;;;;;;;;20.90;99.90;;;;;;5129511;27;20373;-44
2023/06/11 06:44:12;;;;;;;;;;;20.90;99.90;;;;;;5134536;27;19981;-45
2023/06/11 06:46:37;;;;;;;;;;;21.00;99.90;;;;;;5134144;27;20002;-45
2023/06/11 06:49:03;;;;;;;;;;;21.00;99.90;;;;;;5134577;27;19929;-44
2023/06/11 06:51:29;;;;;;;;;;;21.10;99.90;;;;;;5134009;27;19964;-44
2023/06/11 06:53:55;;;;;;;;;;;21.20;99.90;;;;;;5133799;27;19912;-44
2023/06/11 06:56:21;;;;;;;;;;;21.30;99.90;;;;;;5134504;27;19919;-46
2023/06/11 06:58:47;;;;;;;;;;;21.30;99.90;;;;;;5134265;27;19915;-43
2023/06/11 07:01:13;;;;;;;;;;;21.40;99.90;;;;;;5133147;27;19907;-45
2023/06/11 07:03:38;;;;;;;;;;;21.40;99.90;;;;;;5134243;27;19908;-44
2023/06/11 07:06:04;;;;;;;;;;;21.50;99.90;;;;;;5134308;27;20013;-43
2023/06/11 07:08:29;;;;;;;;;;;21.60;99.90;;;;;;5133297;27;19914;-46
2023/06/11 07:10:55;;;;;;;;;;;21.60;99.90;;;;;;5134274;27;20006;-45
2023/06/11 07:13:21;;;;;;;;;;;21.80;99.90;;;;;;5133388;27;19967;-44
2023/06/11 07:15:47;;;;;;;;;;;21.80;99.90;;;;;;5133363;27;19914;-48
2023/06/11 07:18:12;;;;;;;;;;;21.90;99.90;;;;;;5133831;27;20039;-45
2023/06/11 07:20:38;;;;;;;;;;;21.90;99.90;;;;;;5133315;27;20415;-44
2023/06/11 07:23:03;;;;;;;;;;;22.10;99.90;;;;;;5131883;27;19915;-45
2023/06/11 07:25:29;;;;;;;;;;;22.20;99.90;;;;;;5132592;27;20274;-43
2023/06/11 07:27:55;;;;;;;;;;;22.30;99.90;;;;;;5124490;27;19912;-48
2023/06/11 07:30:20;;;;;;;;;;;22.30;99.60;;;;;;5124430;27;20036;-48
2023/06/11 07:32:46;;;;;;;;;;;22.40;99.70;;;;;;5112265;28;19921;-44
2023/06/11 07:35:11;;;;;;;;;;;22.50;99.50;;;;;;5129805;27;20392;-45
2023/06/11 07:37:37;;;;;;;;;;;22.50;99.40;;;;;;5134068;27;19915;-50
2023/06/11 07:40:05;;;;;;;;;;;22.60;99.50;;;;;;5134242;27;20369;-45
2023/06/11 07:42:31;;;;;;;;;;;22.60;98.90;;;;;;5133659;27;19914;-45
2023/06/11 07:44:56;;;;;;;;;;;22.70;99.60;;;;;;5134349;27;19907;-45
2023/06/11 07:47:21;;;;;;;;;;;22.80;99.00;;;;;;5133692;27;20393;-45
2023/06/11 07:49:47;;;;;;;;;;;22.90;99.00;;;;;;5133546;27;19918;-45
2023/06/11 07:52:12;;;;;;;;;;;23.00;99.40;;;;;;5133849;27;19911;-44
2023/06/11 07:54:38;;;;;;;;;;;23.00;98.50;;;;;;5134205;27;19907;-43
2023/06/11 07:57:04;;;;;;;;;;;23.10;98.40;;;;;;5133615;27;19947;-44
2023/06/11 07:59:30;;;;;;;;;;;23.10;98.40;;;;;;5133991;27;19942;-44
2023/06/11 08:01:55;;;;;;;;;;;23.20;98.80;;;;;;5134236;28;20319;-46
2023/06/11 08:04:21;;;;;;;;;;;23.30;98.70;;;;;;5133222;28;19919;-45
2023/06/11 08:06:46;;;;;;;;;;;23.40;98.20;;;;;;5134102;28;19907;-44
2023/06/11 08:09:12;;;;;;;;;;;23.50;98.10;;;;;;5133888;28;19907;-46
2023/06/11 08:11:37;;;;;;;;;;;23.60;97.90;;;;;;5132525;28;20020;-48
2023/06/11 08:14:03;;;;;;;;;;;23.70;98.10;;;;;;5133741;28;20374;-44
2023/06/11 08:16:28;;;;;;;;;;;23.80;98.40;;;;;;5133427;28;20040;-45
2023/06/11 08:18:54;;;;;;;;;;;23.90;97.80;;;;;;5132532;28;19916;-45
2023/06/11 08:21:20;;;;;;;;;;;24.00;97.90;;;;;;5133149;28;19912;-44
2023/06/11 08:23:45;;;;;;;;;;;24.00;97.90;;;;;;5134144;28;19915;-46
2023/06/11 08:26:12;;;;;;;;;;;24.10;97.70;;;;;;5133435;28;20410;-47
2023/06/11 08:28:37;;;;;;;;;;;24.20;97.70;;;;;;5133512;28;20006;-44
2023/06/11 08:31:03;;;;;;;;;;;24.30;97.30;;;;;;5133818;28;19947;-46
2023/06/11 08:33:28;;;;;;;;;;;24.40;97.50;;;;;;5133136;28;19918;-47
2023/06/11 08:35:54;;;;;;;;;;;24.50;97.20;;;;;;5133548;28;19923;-45
2023/06/11 08:38:19;;;;;;;;;;;24.70;96.90;;;;;;5133011;28;20442;-45
2023/06/11 08:40:45;;;;;;;;;;;24.70;96.30;;;;;;5133416;28;19915;-46
2023/06/11 08:43:10;;;;;;;;;;;24.90;96.80;;;;;;5133619;28;19918;-47
2023/06/11 08:45:36;;;;;;;;;;;25.00;96.60;;;;;;5133082;28;19911;-45
2023/06/11 08:48:02;;;;;;;;;;;25.10;96.10;;;;;;5136357;27;19908;-46
2023/06/11 08:50:29;;;;;;;;;;;25.20;95.80;;;;;;5137621;27;19907;-46
2023/06/11 08:52:54;;;;;;;;;;;25.30;96.40;;;;;;5137196;27;19953;-45
2023/06/11 08:55:20;;;;;;;;;;;25.30;95.50;;;;;;5137468;27;19907;-46
2023/06/11 08:57:46;;;;;;;;;;;25.50;95.50;;;;;;5137079;27;20021;-46
2023/06/11 09:00:12;;;;;;;;;;;25.60;95.00;;;;;;5136827;27;19908;-46
2023/06/11 09:02:38;;;;;;;;;;;25.70;95.50;;;;;;5137261;27;19914;-45
2023/06/11 09:05:04;;;;;;;;;;;25.80;95.60;;;;;;5137388;27;19930;-42
2023/06/11 09:07:29;;;;;;;;;;;25.80;94.60;;;;;;5136564;27;19911;-45
2023/06/11 09:10:05;;;;;;;;;;;26.00;95.10;;;;;;5137315;27;19952;-46
2023/06/11 09:12:30;;;;;;;;;;;26.10;93.60;;;;;;5136545;27;19915;-44
2023/06/11 09:14:56;;;;;;;;;;;26.20;94.00;;;;;;5136831;27;19914;-45
2023/06/11 09:17:21;;;;;;;;;;;26.30;94.00;;;;;;5136533;27;20401;-46
2023/06/11 09:19:47;;;;;;;;;;;26.30;93.40;;;;;;5137106;27;19908;-46
2023/06/11 09:22:13;;;;;;;;;;;26.40;93.70;;;;;;5136039;27;19998;-46
2023/06/11 09:24:39;;;;;;;;;;;26.60;93.80;;;;;;5137086;27;20378;-43
2023/06/11 09:27:05;;;;;;;;;;;26.60;93.70;;;;;;5136489;27;20011;-45
2023/06/11 09:29:31;;;;;;;;;;;26.70;93.50;;;;;;5132457;27;19962;-45
2023/06/11 09:32:06;;;;;;;;;;;26.80;93.20;;;;;;5136495;27;20353;-45
2023/06/11 09:34:32;;;;;;;;;;;26.90;93.90;;;;;;5136321;27;20018;-51
2023/06/11 09:36:57;;;;;;;;;;;27.00;93.50;;;;;;5136190;27;19973;-45
2023/06/11 09:39:23;;;;;;;;;;;27.00;93.40;;;;;;5129298;27;19920;-46
2023/06/11 09:41:50;;;;;;;;;;;27.10;92.90;;;;;;5116121;28;19935;-44
2023/06/11 09:44:17;;;;;;;;;;;27.10;92.40;;;;;;5116408;28;19908;-44
2023/06/11 09:46:43;;;;;;;;;;;27.20;92.70;;;;;;5138930;27;19907;-47
2023/06/11 09:49:08;;;;;;;;;;;27.30;92.50;;;;;;5136253;27;20362;-46
2023/06/11 09:51:35;;;;;;;;;;;27.40;93.40;;;;;;5136675;27;19908;-44
2023/06/11 09:54:02;;;;;;;;;;;27.50;93.10;;;;;;5136796;27;19990;-44
2023/06/11 09:56:28;;;;;;;;;;;27.60;92.40;;;;;;5136166;27;20335;-44
2023/06/11 09:58:56;;;;;;;;;;;27.70;92.30;;;;;;5135755;27;19959;-46
2023/06/11 10:01:24;;;;;;;;;;;27.60;90.80;;;;;;5136558;27;19915;-45
2023/06/11 10:03:50;;;;;;;;;;;27.80;91.30;;;;;;5135882;27;19908;-45
2023/06/11 10:06:21;;;;;;;;;;;27.80;91.30;;;;;;5137507;27;19915;-46
2023/06/11 10:08:48;;;;;;;;;;;27.90;91.00;;;;;;5136334;27;19912;-44
2023/06/11 10:11:15;;;;;;;;;;;27.90;89.50;;;;;;5135800;27;19919;-45
2023/06/11 10:13:40;;;;;;;;;;;27.90;89.40;;;;;;5136086;27;19911;-43
2023/06/11 10:16:09;;;;;;;;;;;28.00;89.60;;;;;;5136178;27;19918;-46
2023/06/11 10:18:35;;;;;;;;;;;28.00;89.20;;;;;;5135506;27;20348;-45
2023/06/11 10:21:01;;;;;;;;;;;28.20;89.50;;;;;;5136340;27;19976;-49
2023/06/11 10:23:37;;;;;;;;;;;28.20;87.30;;;;;;5135834;27;20285;-47
2023/06/11 10:26:03;;;;;;;;;;;28.20;89.10;;;;;;5135508;27;19911;-46
2023/06/11 10:28:48;;;;;;;;;;;28.30;89.50;;;;;;5136238;27;19918;-45
2023/06/11 10:31:30;;;;;;;;;;;28.50;88.60;;;;;;5134259;27;19914;-44
2023/06/11 10:34:02;;;;;;;;;;;28.50;90.10;;;;;;5125704;27;19912;-47
2023/06/11 10:36:34;;;;;;;;;;;28.60;88.20;;;;;;5135153;27;19927;-45
2023/06/11 10:39:09;;;;;;;;;;;28.70;85.90;;;;;;5135272;27;20004;-45
2023/06/11 10:41:39;;;;;;;;;;;28.80;86.40;;;;;;5121983;27;19972;-48
2023/06/11 10:44:04;;;;;;;;;;;28.80;84.00;;;;;;5128194;27;19918;-50
2023/06/11 10:46:30;;;;;;;;;;;28.90;82.40;;;;;;5134563;27;19912;-45
2023/06/11 10:48:55;;;;;;;;;;;28.90;81.90;;;;;;5135672;27;19907;-45
2023/06/11 10:51:21;;;;;;;;;;;29.00;83.60;;;;;;5135170;27;20301;-44
2023/06/11 10:53:58;;;;;;;;;;;29.10;82.20;;;;;;5134003;27;19915;-44
2023/06/11 10:56:24;;;;;;;;;;;29.20;83.80;;;;;;5118889;27;20326;-44
2023/06/11 10:58:50;;;;;;;;;;;29.20;80.80;;;;;;5123367;27;19919;-44
2023/06/11 11:01:19;;;;;;;;;;;29.30;80.40;;;;;;5134658;27;19907;-45
2023/06/11 11:03:45;;;;;;;;;;;29.40;78.10;;;;;;5134725;27;19911;-45
2023/06/11 11:06:13;;;;;;;;;;;29.40;76.70;;;;;;5126945;27;19912;-47
2023/06/11 11:08:38;;;;;;;;;;;29.50;74.60;;;;;;5114675;28;19908;-48
2023/06/11 11:11:04;;;;;;;;;;;29.50;75.40;;;;;;5114605;28;19953;-44
2023/06/11 11:13:30;;;;;;;;;;;29.70;76.50;;;;;;5119808;27;19916;-45
2023/06/11 11:15:56;;;;;;;;;;;29.70;76.30;;;;;;5127654;27;19911;-45
2023/06/11 11:18:21;;;;;;;;;;;29.80;75.30;;;;;;5134962;27;20269;-47
2023/06/11 11:20:47;;;;;;;;;;;29.80;75.80;;;;;;5134837;27;19915;-45
2023/06/11 11:23:13;;;;;;;;;;;29.90;74.80;;;;;;5116218;27;20385;-45
2023/06/11 11:25:38;;;;;;;;;;;29.90;74.90;;;;;;5132171;27;19907;-45
2023/06/11 11:28:04;;;;;;;;;;;29.90;71.90;;;;;;5131980;27;19911;-45
2023/06/11 11:30:29;;;;;;;;;;;29.90;70.00;;;;;;5133561;27;20542;-44
2023/06/11 11:32:58;;;;;;;;;;;30.00;72.80;;;;;;5133617;27;19911;-44
2023/06/11 11:35:26;;;;;;;;;;;30.10;73.80;;;;;;5128614;27;19915;-47
2023/06/11 11:37:52;;;;;;;;;;;30.10;72.20;;;;;;5131528;27;20301;-46
2023/06/11 11:40:20;;;;;;;;;;;30.20;71.50;;;;;;5125252;27;20158;-45
2023/06/11 11:42:47;;;;;;;;;;;30.30;70.20;;;;;;5130229;27;19915;-44
2023/06/11 11:45:14;;;;;;;;;;;30.30;69.70;;;;;;5140888;27;19919;-44
2023/06/11 11:47:40;;;;;;;;;;;30.30;68.60;;;;;;5143059;27;19956;-45
2023/06/11 11:50:10;;;;;;;;;;;30.40;70.40;;;;;;5120653;27;20381;-50
2023/06/11 11:52:37;;;;;;;;;;;30.50;69.10;;;;;;5126585;27;19911;-45
2023/06/11 11:55:03;;;;;;;;;;;30.60;68.60;;;;;;5131571;27;19911;-48
2023/06/11 11:57:30;;;;;;;;;;;30.60;65.10;;;;;;5137097;27;19916;-46
2023/06/11 11:59:55;;;;;;;;;;;30.70;68.40;;;;;;5131678;27;19921;-45
2023/06/11 12:02:27;;;;;;;;;;;30.80;66.60;;;;;;5130493;27;19923;-44
2023/06/11 12:04:57;;;;;;;;;;;30.60;65.70;;;;;;5132496;28;19919;-46
2023/06/11 12:07:23;;;;;;;;;;;30.30;65.70;;;;;;5131831;28;20384;-45
2023/06/11 12:09:49;;;;;;;;;;;30.30;66.70;;;;;;5129358;28;19908;-45
2023/06/11 12:12:14;;;;;;;;;;;30.50;66.70;;;;;;5127927;27;20269;-43
2023/06/11 12:14:40;;;;;;;;;;;30.40;65.20;;;;;;5124043;28;19915;-45
2023/06/11 12:17:10;;;;;;;;;;;30.40;66.30;;;;;;5127391;27;20285;-45
2023/06/11 12:19:36;;;;;;;;;;;30.60;66.30;;;;;;5132394;28;19915;-47
2023/06/11 12:22:04;;;;;;;;;;;30.60;64.60;;;;;;5131252;27;19922;-44
2023/06/11 12:24:29;;;;;;;;;;;30.70;62.20;;;;;;5135169;27;19958;-49
2023/06/11 12:26:55;;;;;;;;;;;30.80;60.20;;;;;;5134491;27;19951;-44
2023/06/11 12:29:20;;;;;;;;;;;31.00;61.30;;;;;;5136291;27;20044;-46
2023/06/11 12:31:47;;;;;;;;;;;31.10;62.50;;;;;;5134279;27;19923;-45
2023/06/11 12:34:15;;;;;;;;;;;31.30;61.50;;;;;;5135298;27;19919;-44
2023/06/11 12:36:42;;;;;;;;;;;31.40;63.00;;;;;;5136384;27;19926;-43
2023/06/11 12:39:08;;;;;;;;;;;31.60;63.30;;;;;;5135646;27;19919;-45
2023/06/11 12:41:33;;;;;;;;;;;31.70;62.00;;;;;;5145973;27;20001;-44
2023/06/11 12:43:59;;;;;;;;;;;31.70;61.30;;;;;;5138983;27;19918;-43
2023/06/11 12:46:27;;;;;;;;;;;31.80;62.90;;;;;;5143587;27;19918;-44
2023/06/11 12:48:53;;;;;;;;;;;31.90;61.70;;;;;;5139092;27;20307;-48
2023/06/11 12:51:19;;;;;;;;;;;32.30;61.50;;;;;;5135334;27;19914;-47
2023/06/11 12:53:44;;;;;;;;;;;32.60;61.90;;;;;;5134788;27;19915;-44
2023/06/11 12:56:10;;;;;;;;;;;32.90;61.90;;;;;;5128468;27;20253;-46
2023/06/11 12:58:35;;;;;;;;;;;32.90;61.20;;;;;;5121994;27;20358;-49
2023/06/11 13:01:01;;;;;;;;;;;32.50;60.50;;;;;;5124635;27;19916;-46
2023/06/11 13:03:26;;;;;;;;;;;32.30;60.30;;;;;;5128744;27;20629;-45
2023/06/11 13:05:52;;;;;;;;;;;32.40;61.00;;;;;;5134217;27;19919;-45
2023/06/11 13:08:17;;;;;;;;;;;32.20;60.10;;;;;;5133555;27;19930;-46
2023/06/11 13:10:44;;;;;;;;;;;32.10;59.50;;;;;;5134558;27;19907;-44
2023/06/11 13:13:10;;;;;;;;;;;31.80;60.10;;;;;;5125437;27;20006;-43
2023/06/11 13:15:35;;;;;;;;;;;32.00;61.80;;;;;;5124601;27;20338;-45
2023/06/11 13:18:01;;;;;;;;;;;32.50;61.80;;;;;;5134683;27;19942;-44
2023/06/11 13:20:28;;;;;;;;;;;32.90;61.30;;;;;;5135684;27;19968;-45
2023/06/11 13:22:54;;;;;;;;;;;33.30;60.60;;;;;;5129781;27;19914;-43
2023/06/11 13:25:20;;;;;;;;;;;33.70;58.30;;;;;;5126175;27;20006;-47
2023/06/11 13:27:45;;;;;;;;;;;34.00;59.90;;;;;;5135137;27;19912;-45
2023/06/11 13:30:12;;;;;;;;;;;34.30;59.20;;;;;;5128628;27;19935;-47
2023/06/11 13:32:38;;;;;;;;;;;34.60;57.70;;;;;;5128431;27;19957;-46
2023/06/11 13:35:03;;;;;;;;;;;34.80;57.10;;;;;;5126727;27;19915;-45
2023/06/11 13:37:29;;;;;;;;;;;34.70;56.70;;;;;;5125746;27;19953;-47
2023/06/11 13:39:55;;;;;;;;;;;34.50;56.30;;;;;;5114825;28;19916;-45
2023/06/11 13:42:20;;;;;;;;;;;34.70;56.20;;;;;;5113991;28;19914;-46
2023/06/11 13:44:46;;;;;;;;;;;34.30;54.70;;;;;;5119507;27;19911;-45
2023/06/11 13:47:11;;;;;;;;;;;34.00;55.40;;;;;;5128904;27;19911;-46
2023/06/11 13:49:37;;;;;;;;;;;34.30;55.40;;;;;;5122391;27;19916;-47
2023/06/11 13:52:03;;;;;;;;;;;34.30;56.40;;;;;;5122078;27;20251;-49
2023/06/11 13:54:28;;;;;;;;;;;33.90;56.40;;;;;;5118854;27;19912;-44
2023/06/11 13:56:54;;;;;;;;;;;33.40;55.40;;;;;;5112880;27;19907;-45
2023/06/11 13:59:20;;;;;;;;;;;32.90;55.00;;;;;;5133091;27;19923;-48
2023/06/11 14:01:46;;;;;;;;;;;32.30;56.00;;;;;;5125224;27;19919;-50
2023/06/11 14:04:12;;;;;;;;;;;31.90;57.10;;;;;;5132156;27;19915;-46
2023/06/11 14:06:38;;;;;;;;;;;31.80;58.60;;;;;;5133918;27;20309;-45
2023/06/11 14:09:04;;;;;;;;;;;32.20;59.30;;;;;;5133252;27;19908;-46
2023/06/11 14:11:29;;;;;;;;;;;32.70;58.60;;;;;;5124888;27;20267;-46